New York, New York
Traffic Map
Current Weather Conditions
New York, New York
Overcast
Overcast
12°
Feels Like: 12°
Wind Chill: 12° Ceiling: 1400
Heat Index: 12° Visibility: 10mi
Dew Point: 10° Wind: 0mph
Humidity: 88% Direction: ° ()
Pressure: 29.7in Gusts: 0mph
Raw Report DataKJRB 231935Z AUTO 00000KT 10SM BKN014 OVC021 12/10 A2970 RMK AO1 P0008
Traffic Incident Summary
Active as of:
Severity:
Category:
InformationThere was an issue retrieving the traffic information for this location. Please try a different location or try again shortly.
Advertisements
Track Severe Weather on mobile